WDH weather

Hosea Kutako International Airport
Windhoek, Khomas Region, Namibia

Public forecast

Using degrees Celsius for public forecast. Weather courtesy of forecast.io.

METAR (pilot weather report)

Retrieved 2018/08/16 12:00 UTC (43 minutes ago):

FYWH 161200Z 30014KT 260V340 CAVOK 28/M06 Q1024 NOSIG

TAF (pilot weather forecast)

Forecast is more than 12 hours old.

Retrieved 2018/08/15 00:00 UTC (2 days ago):

TAF FYWH 152200Z 1600/1700 26008KT CAVOK BECMG 1610/1612 31006KT BECMG 1619/1621 17004KT